createdAt,value
2019-05-10T00:00:51.000Z,0.67
2019-05-10T00:03:38.996Z,0.60
2019-05-10T00:06:26.666Z,0.60
2019-05-10T00:08:56.019Z,0.80
2019-05-10T00:11:30.441Z,0.70
2019-05-10T00:16:36.574Z,1.10
2019-05-10T00:19:06.654Z,0.50
2019-05-10T00:21:36.628Z,0.60
2019-05-10T00:24:06.633Z,0.70
2019-05-10T00:26:36.763Z,0.70
2019-05-10T00:29:06.844Z,0.70
2019-05-10T00:31:36.883Z,0.70
2019-05-10T00:34:06.950Z,0.60
2019-05-10T00:36:36.924Z,0.57
2019-05-10T00:39:07.822Z,0.50
2019-05-10T00:41:37.869Z,0.60
2019-05-10T00:44:07.873Z,0.70
2019-05-10T00:46:37.959Z,0.60
2019-05-10T00:49:07.927Z,0.70
2019-05-10T00:51:37.865Z,0.47
2019-05-10T00:54:07.850Z,0.80
2019-05-10T00:56:37.855Z,0.57
2019-05-10T00:59:07.840Z,0.67
2019-05-10T01:01:37.847Z,0.70
2019-05-10T01:04:07.898Z,0.70
2019-05-10T01:06:37.936Z,0.80
2019-05-10T01:09:07.906Z,0.90
2019-05-10T01:11:37.917Z,0.70
2019-05-10T01:14:08.028Z,0.70
2019-05-10T01:16:38.170Z,0.70
2019-05-10T01:19:08.157Z,0.60
2019-05-10T01:21:38.164Z,0.90
2019-05-10T01:24:08.144Z,0.70
2019-05-10T01:26:38.135Z,0.80
2019-05-10T01:29:08.186Z,0.80
2019-05-10T01:31:38.187Z,0.80
2019-05-10T01:34:08.142Z,0.97
2019-05-10T01:36:38.119Z,0.67
2019-05-10T01:39:08.135Z,0.70
2019-05-10T01:41:38.120Z,0.90
2019-05-10T01:44:08.116Z,0.60
2019-05-10T01:46:38.124Z,0.60
2019-05-10T01:49:08.102Z,0.80
2019-05-10T01:51:38.104Z,0.50
2019-05-10T01:54:08.078Z,0.70
2019-05-10T01:56:38.018Z,0.80
2019-05-10T01:59:07.983Z,0.70
2019-05-10T02:01:37.998Z,0.90
2019-05-10T02:04:08.461Z,0.70
2019-05-10T02:06:38.615Z,0.60
2019-05-10T02:09:09.386Z,0.50
2019-05-10T02:11:39.468Z,0.60
2019-05-10T02:14:09.439Z,0.80
2019-05-10T02:16:39.506Z,0.73
2019-05-10T02:19:09.517Z,0.60
2019-05-10T02:21:39.493Z,0.63
2019-05-10T02:24:09.509Z,0.80
2019-05-10T02:26:39.412Z,0.63
2019-05-10T02:29:09.411Z,0.70
2019-05-10T02:31:39.382Z,0.70
2019-05-10T02:34:09.394Z,0.80
2019-05-10T02:36:39.370Z,0.80
2019-05-10T02:39:10.050Z,0.70
2019-05-10T02:41:40.054Z,0.60
2019-05-10T02:44:10.026Z,0.87
2019-05-10T02:46:40.035Z,0.80
2019-05-10T02:49:10.013Z,0.70
2019-05-10T02:51:40.011Z,0.80
2019-05-10T02:54:09.979Z,1.00
2019-05-10T02:56:41.289Z,0.60
2019-05-10T02:59:13.867Z,0.60
2019-05-10T03:01:46.019Z,0.70
2019-05-10T03:04:15.977Z,0.70
2019-05-10T03:06:45.990Z,0.60
2019-05-10T03:09:15.959Z,0.70
2019-05-10T03:11:48.730Z,1.07
2019-05-10T03:14:20.614Z,0.70
2019-05-10T03:16:52.034Z,0.50
2019-05-10T03:19:23.100Z,1.07
2019-05-10T03:21:58.968Z,0.67
2019-05-10T03:24:29.121Z,0.80
2019-05-10T03:26:59.190Z,0.83
2019-05-10T03:29:29.163Z,0.90
2019-05-10T03:31:59.238Z,0.70
2019-05-10T03:34:29.285Z,1.00
2019-05-10T03:36:59.328Z,0.90
2019-05-10T03:39:29.307Z,0.80
2019-05-10T03:41:59.604Z,0.57
2019-05-10T03:44:29.525Z,0.73
2019-05-10T03:46:59.542Z,0.80
2019-05-10T03:49:29.509Z,0.93
2019-05-10T03:51:59.597Z,0.60
2019-05-10T03:54:29.500Z,0.90
2019-05-10T03:57:12.403Z,0.63
2019-05-10T03:59:31.203Z,0.90
2019-05-10T04:02:01.233Z,0.80
2019-05-10T04:04:31.206Z,0.80
2019-05-10T04:07:01.206Z,0.80
2019-05-10T04:09:31.244Z,0.83
2019-05-10T04:12:01.181Z,0.90
2019-05-10T04:14:31.293Z,1.07
2019-05-10T04:17:01.228Z,0.93
2019-05-10T04:19:31.140Z,1.00
2019-05-10T04:22:01.148Z,0.93
2019-05-10T04:24:35.520Z,0.80
2019-05-10T04:27:02.833Z,0.90
2019-05-10T04:29:32.885Z,0.80
2019-05-10T04:32:02.793Z,0.77
2019-05-10T04:34:32.696Z,1.00
2019-05-10T04:37:02.625Z,1.00
2019-05-10T04:39:32.638Z,1.00
2019-05-10T04:42:02.545Z,0.90
2019-05-10T04:44:33.724Z,0.87
2019-05-10T04:47:03.688Z,0.93
2019-05-10T04:49:33.694Z,0.83
2019-05-10T04:52:03.667Z,0.90
2019-05-10T04:54:33.673Z,0.90
2019-05-10T04:57:03.643Z,0.90
2019-05-10T04:59:33.688Z,0.70
2019-05-10T05:02:03.637Z,0.80
2019-05-10T05:04:33.739Z,0.80
2019-05-10T05:07:03.713Z,0.90
2019-05-10T05:09:33.719Z,0.77
2019-05-10T05:12:03.681Z,0.80
2019-05-10T05:14:33.766Z,0.80
2019-05-10T05:17:03.735Z,0.80
2019-05-10T05:19:33.573Z,0.60
2019-05-10T05:22:03.598Z,0.80
2019-05-10T05:24:33.579Z,0.90
2019-05-10T05:27:03.568Z,0.90
2019-05-10T05:29:33.557Z,0.70
2019-05-10T05:32:03.875Z,0.90
2019-05-10T05:34:34.151Z,0.90
2019-05-10T05:37:04.752Z,0.70
2019-05-10T05:39:34.679Z,0.90
2019-05-10T05:42:06.424Z,0.83
2019-05-10T05:44:36.500Z,0.83
2019-05-10T05:47:06.578Z,0.80
2019-05-10T05:49:36.551Z,1.07
2019-05-10T05:52:06.558Z,1.00
2019-05-10T05:54:36.554Z,0.80
2019-05-10T05:57:06.562Z,0.83
2019-05-10T05:59:38.403Z,1.00
2019-05-10T06:02:09.614Z,0.70
2019-05-10T06:04:40.868Z,0.90
2019-05-10T06:07:11.405Z,0.70
2019-05-10T06:09:41.365Z,0.73
2019-05-10T06:12:12.682Z,0.80
2019-05-10T06:14:49.916Z,0.90
2019-05-10T06:17:15.486Z,0.80
2019-05-10T06:19:45.382Z,0.70
2019-05-10T06:22:15.410Z,0.97
2019-05-10T06:24:46.617Z,0.70
2019-05-10T06:27:17.305Z,0.67
2019-05-10T06:29:47.291Z,1.00
2019-05-10T06:32:17.332Z,0.70
2019-05-10T06:34:47.330Z,0.73
2019-05-10T06:37:17.302Z,0.90
2019-05-10T06:39:47.307Z,0.80
2019-05-10T06:42:17.276Z,0.90
2019-05-10T06:44:47.290Z,0.80
2019-05-10T06:47:17.268Z,0.90
2019-05-10T06:49:52.076Z,1.10
2019-05-10T06:52:21.850Z,0.70
2019-05-10T06:54:50.693Z,0.80
2019-05-10T06:57:20.587Z,0.80
2019-05-10T06:59:50.572Z,0.80
2019-05-10T07:02:26.183Z,1.00
2019-05-10T07:04:52.187Z,0.70
2019-05-10T07:07:42.746Z,1.13
2019-05-10T07:10:12.192Z,0.70
2019-05-10T07:12:30.002Z,0.83
2019-05-10T07:15:03.584Z,0.73
2019-05-10T07:17:29.861Z,0.67
2019-05-10T07:19:59.764Z,0.60
2019-05-10T07:22:29.776Z,0.50
2019-05-10T07:25:04.303Z,0.70
2019-05-10T07:27:36.541Z,0.63
2019-05-10T07:30:03.230Z,0.60
2019-05-10T07:32:34.200Z,0.70
2019-05-10T07:35:06.042Z,0.60
2019-05-10T07:37:36.054Z,0.60
2019-05-10T07:40:09.287Z,0.70
2019-05-10T07:42:45.665Z,0.60
2019-05-10T07:45:11.157Z,0.60
2019-05-10T07:47:41.137Z,0.67
2019-05-10T07:50:11.596Z,0.70
2019-05-10T07:52:43.797Z,0.70
2019-05-10T07:55:17.949Z,0.70
2019-05-10T07:57:45.068Z,0.60
2019-05-10T08:00:15.726Z,0.70
2019-05-10T08:02:52.717Z,0.47
2019-05-10T08:05:18.450Z,0.70
2019-05-10T08:07:49.618Z,0.60
2019-05-10T08:10:21.414Z,0.60
2019-05-10T08:12:53.058Z,0.60
2019-05-10T08:15:24.694Z,0.50
2019-05-10T08:17:54.737Z,0.70
2019-05-10T08:20:38.222Z,0.50
2019-05-10T08:22:56.431Z,0.40
2019-05-10T08:25:28.961Z,0.40
2019-05-10T08:28:02.643Z,0.50
2019-05-10T08:30:42.498Z,0.50
2019-05-10T08:33:10.963Z,0.50
2019-05-10T08:35:45.565Z,0.43
2019-05-10T08:38:12.978Z,0.40
2019-05-10T08:40:43.189Z,0.60
2019-05-10T08:43:16.675Z,0.40
2019-05-10T08:45:49.292Z,0.50
2019-05-10T08:48:16.673Z,0.53
2019-05-10T08:50:54.270Z,0.40
2019-05-10T08:53:18.337Z,0.73
2019-05-10T08:55:48.671Z,0.40
2019-05-10T09:01:20.501Z,0.60
2019-05-10T09:03:38.011Z,0.47
2019-05-10T09:06:11.896Z,0.50
2019-05-10T09:08:39.745Z,0.80
2019-05-10T09:11:09.831Z,0.33
2019-05-10T09:13:42.451Z,0.50
2019-05-10T09:16:13.573Z,0.40
2019-05-10T09:18:50.250Z,0.40
2019-05-10T09:21:15.570Z,0.33
2019-05-10T09:23:53.013Z,0.40
2019-05-10T09:26:18.140Z,0.40
2019-05-10T09:28:55.490Z,0.63
2019-05-10T09:31:22.799Z,0.30
2019-05-10T09:33:54.108Z,0.50
2019-05-10T09:36:30.803Z,0.70
2019-05-10T09:38:54.867Z,0.50
2019-05-10T09:41:27.707Z,0.60
2019-05-10T09:43:56.665Z,0.53
2019-05-10T09:46:26.601Z,0.50
2019-05-10T09:49:05.218Z,0.80
2019-05-10T09:51:30.960Z,0.60
2019-05-10T09:54:01.017Z,0.50
2019-05-10T09:56:32.951Z,0.40
2019-05-10T09:59:02.825Z,0.57
2019-05-10T10:01:32.900Z,0.60
2019-05-10T10:04:02.945Z,0.53
2019-05-10T10:06:32.919Z,0.53
2019-05-10T10:09:07.258Z,0.70
2019-05-10T10:11:36.010Z,0.30
2019-05-10T10:14:07.535Z,0.50
2019-05-10T10:16:37.833Z,0.50
2019-05-10T10:19:07.853Z,0.60
2019-05-10T10:21:38.970Z,0.50
2019-05-10T10:24:15.694Z,0.60
2019-05-10T10:26:41.133Z,0.70
2019-05-10T10:29:11.147Z,0.50
2019-05-10T10:31:51.384Z,0.70
2019-05-10T10:34:12.811Z,0.60
2019-05-10T10:36:44.157Z,0.63
2019-05-10T10:39:16.882Z,0.70
2019-05-10T10:41:48.502Z,0.87
2019-05-10T10:44:18.225Z,0.70
2019-05-10T10:46:48.343Z,0.97
2019-05-10T10:49:23.210Z,1.17
2019-05-10T10:51:49.995Z,1.47
2019-05-10T10:54:22.391Z,1.10
2019-05-10T10:56:51.660Z,1.43
2019-05-10T10:59:21.593Z,0.97
2019-05-10T11:02:23.358Z,1.30
2019-05-10T11:04:23.326Z,1.20
2019-05-10T11:07:09.187Z,1.50
2019-05-10T11:09:25.073Z,1.50
2019-05-10T11:11:55.078Z,1.30
2019-05-10T11:14:25.378Z,1.70
2019-05-10T11:16:57.114Z,1.60
2019-05-10T11:19:26.977Z,2.00
2019-05-10T11:22:02.254Z,1.50
2019-05-10T11:24:30.789Z,1.67
2019-05-10T11:27:01.108Z,1.30
2019-05-10T11:29:31.351Z,1.40
2019-05-10T11:32:15.502Z,1.70
2019-05-10T11:34:37.319Z,1.60
2019-05-10T11:37:04.749Z,1.60
2019-05-10T11:39:42.142Z,1.73
2019-05-10T11:42:07.370Z,1.53
2019-05-10T11:44:41.529Z,1.90
2019-05-10T11:47:22.927Z,1.60
2019-05-10T11:49:40.972Z,1.80
2019-05-10T11:52:13.285Z,1.40
2019-05-10T11:54:42.782Z,1.40
2019-05-10T11:57:13.770Z,1.50
2019-05-10T11:59:45.001Z,1.40
2019-05-10T12:02:33.969Z,1.40
2019-05-10T12:04:48.411Z,1.40
2019-05-10T12:07:27.363Z,1.40
2019-05-10T12:09:53.285Z,1.10
2019-05-10T12:14:54.116Z,0.90
2019-05-10T12:17:24.206Z,1.00
2019-05-10T12:22:32.147Z,0.80
2019-05-10T12:25:18.707Z,0.70
2019-05-10T12:26:31.416Z,0.80
2019-05-10T12:26:49.168Z,1.00
2019-05-10T12:27:44.281Z,0.87
2019-05-10T12:30:03.535Z,0.70
2019-05-10T12:32:38.812Z,0.90
2019-05-10T12:35:07.149Z,0.73
2019-05-10T12:37:39.664Z,0.60
2019-05-10T12:40:14.880Z,0.70
2019-05-10T12:42:41.953Z,0.70
2019-05-10T12:45:13.399Z,1.00
2019-05-10T12:47:43.323Z,0.90
2019-05-10T12:50:15.053Z,0.83
2019-05-10T12:52:53.140Z,0.90
2019-05-10T12:55:16.741Z,1.40
2019-05-10T12:57:46.822Z,0.70
2019-05-10T13:00:17.298Z,1.07
2019-05-10T13:02:51.465Z,0.80
2019-05-10T13:05:19.078Z,0.50
2019-05-10T13:07:49.102Z,0.63
2019-05-10T13:10:20.902Z,0.70
2019-05-10T13:12:51.073Z,0.77
2019-05-10T13:15:24.860Z,0.70
2019-05-10T13:17:53.292Z,0.63
2019-05-10T13:20:23.667Z,0.70
2019-05-10T13:22:53.709Z,0.53
2019-05-10T13:25:23.715Z,0.77
2019-05-10T13:27:53.787Z,0.50
2019-05-10T13:30:27.998Z,0.43
2019-05-10T13:32:58.730Z,0.43
2019-05-10T13:35:27.183Z,0.63
2019-05-10T13:38:03.624Z,0.70
2019-05-10T13:40:29.600Z,0.73
2019-05-10T13:43:00.630Z,0.63
2019-05-10T13:45:31.850Z,0.60
2019-05-10T13:48:02.450Z,1.13
2019-05-10T13:50:32.466Z,0.60
2019-05-10T13:53:02.523Z,0.60
2019-05-10T13:55:33.182Z,1.00
2019-05-10T13:58:03.191Z,0.43
2019-05-10T14:00:35.636Z,0.80
2019-05-10T14:03:11.920Z,0.90
2019-05-10T14:05:40.204Z,0.40
2019-05-10T14:08:11.481Z,0.67
2019-05-10T14:10:41.684Z,0.57
2019-05-10T14:13:11.658Z,0.60
2019-05-10T14:15:42.279Z,0.73
2019-05-10T14:18:12.242Z,0.90
2019-05-10T14:20:42.903Z,0.60
2019-05-10T14:23:17.574Z,0.50
2019-05-10T14:25:46.354Z,0.40
2019-05-10T14:28:18.957Z,0.97
2019-05-10T14:30:57.280Z,0.50
2019-05-10T14:33:21.917Z,0.67
2019-05-10T14:35:55.153Z,0.57
2019-05-10T14:38:23.591Z,0.50
2019-05-10T14:40:53.565Z,0.80
2019-05-10T14:43:23.574Z,0.70
2019-05-10T14:45:53.550Z,0.80
2019-05-10T14:48:28.841Z,0.60
2019-05-10T14:50:55.217Z,0.60
2019-05-10T14:53:27.065Z,0.60
2019-05-10T14:55:57.537Z,0.77
2019-05-10T14:58:27.687Z,0.90
2019-05-10T15:00:57.810Z,0.80
2019-05-10T15:03:27.794Z,0.50
2019-05-10T15:06:01.487Z,0.60
2019-05-10T15:08:29.639Z,1.00
2019-05-10T15:10:59.652Z,0.60
2019-05-10T15:13:29.731Z,0.73
2019-05-10T15:15:59.800Z,0.70
2019-05-10T15:18:29.781Z,0.50
2019-05-10T15:20:59.787Z,0.70
2019-05-10T15:23:29.842Z,0.93
2019-05-10T15:26:10.567Z,0.60
2019-05-10T15:28:34.318Z,0.90
2019-05-10T15:31:03.288Z,0.87
2019-05-10T15:33:33.366Z,0.80
2019-05-10T15:36:03.423Z,0.53
2019-05-10T15:38:33.440Z,0.60
2019-05-10T15:41:04.559Z,1.07
2019-05-10T15:43:34.634Z,0.77
2019-05-10T15:46:04.978Z,0.60
2019-05-10T15:48:36.562Z,0.60
2019-05-10T15:51:11.102Z,0.93
2019-05-10T15:53:38.409Z,0.90
2019-05-10T15:56:08.494Z,1.00
2019-05-10T15:58:42.478Z,0.80
2019-05-10T16:01:14.255Z,0.90
2019-05-10T16:03:45.454Z,0.80
2019-05-10T16:06:15.514Z,0.83
2019-05-10T16:08:45.539Z,0.60
2019-05-10T16:11:18.760Z,11.07
2019-05-10T16:13:47.711Z,1.23
2019-05-10T16:16:17.821Z,1.00
2019-05-10T16:18:47.863Z,0.83
2019-05-10T16:21:17.879Z,0.60
2019-05-10T16:23:48.363Z,0.70
2019-05-10T16:26:23.066Z,0.60
2019-05-10T16:28:53.237Z,0.97
2019-05-10T16:31:21.837Z,0.90
2019-05-10T16:33:53.706Z,0.80
2019-05-10T16:36:28.315Z,1.10
2019-05-10T16:38:55.152Z,0.90
2019-05-10T16:41:26.866Z,1.00
2019-05-10T16:44:00.120Z,1.00
2019-05-10T16:46:29.532Z,0.80
2019-05-10T16:48:59.552Z,1.33
2019-05-10T16:51:29.601Z,0.53
2019-05-10T16:54:02.103Z,0.50
2019-05-10T16:56:32.388Z,0.70
2019-05-10T16:59:02.434Z,0.80
2019-05-10T17:01:33.715Z,0.47
2019-05-10T17:04:04.100Z,0.60
2019-05-10T17:06:35.458Z,0.60
2019-05-10T17:09:17.562Z,0.67
2019-05-10T17:11:41.541Z,0.50
2019-05-10T17:14:12.636Z,0.50
2019-05-10T17:16:43.213Z,0.60
2019-05-10T17:19:15.622Z,0.43
2019-05-10T17:21:47.366Z,0.47
2019-05-10T17:24:24.077Z,0.53
2019-05-10T17:26:54.429Z,0.60
2019-05-10T17:29:24.638Z,0.40
2019-05-10T17:31:54.686Z,0.50
2019-05-10T17:34:29.530Z,0.50
2019-05-10T17:39:34.217Z,0.55
2019-05-10T17:42:05.026Z,0.50
2019-05-10T17:44:35.930Z,0.53
2019-05-10T17:47:07.926Z,0.93
2019-05-10T17:49:39.030Z,0.50
2019-05-10T17:52:10.949Z,0.50
2019-05-10T17:54:42.458Z,0.70
2019-05-10T17:57:16.697Z,0.60
2019-05-10T17:59:46.908Z,0.70
2019-05-10T18:02:18.280Z,2.43
2019-05-10T18:04:48.291Z,1.20
2019-05-10T18:07:18.226Z,0.70
2019-05-10T18:09:49.955Z,0.73
2019-05-10T18:12:24.130Z,0.83
2019-05-10T18:14:55.925Z,0.90
2019-05-10T18:17:27.438Z,0.63
2019-05-10T18:20:02.223Z,1.20
2019-05-10T18:22:29.786Z,1.10
2019-05-10T18:25:00.287Z,1.50
2019-05-10T18:27:30.921Z,0.90
2019-05-10T18:30:02.197Z,1.50
2019-05-10T18:32:35.840Z,1.20
2019-05-10T18:35:13.193Z,1.40
2019-05-10T18:37:37.249Z,1.00
2019-05-10T18:40:09.059Z,1.20
2019-05-10T18:42:39.632Z,2.27
2019-05-10T18:45:11.103Z,3.97
2019-05-10T18:47:41.226Z,6.20
2019-05-10T18:50:12.076Z,1.27
2019-05-10T18:52:42.814Z,1.17
2019-05-10T18:55:13.692Z,1.80
2019-05-10T18:57:50.386Z,1.57
2019-05-10T19:00:23.240Z,1.67
2019-05-10T19:02:55.297Z,2.52
2019-05-10T19:05:25.178Z,1.50
2019-05-10T19:08:04.524Z,2.00
2019-05-10T19:10:28.128Z,1.10
2019-05-10T19:13:01.234Z,0.87
2019-05-10T19:15:29.914Z,0.93
2019-05-10T19:17:59.962Z,1.33
2019-05-10T19:20:30.431Z,2.20
2019-05-10T19:23:00.445Z,2.07
2019-05-10T19:25:31.268Z,2.03
2019-05-10T19:28:01.845Z,2.60
2019-05-10T19:30:31.964Z,10.33
2019-05-10T19:33:02.154Z,6.70
2019-05-10T19:35:35.664Z,15.80
2019-05-10T19:38:04.830Z,4.67
2019-05-10T19:40:35.503Z,7.23
2019-05-10T19:43:06.610Z,10.73
2019-05-10T19:45:36.692Z,5.33
2019-05-10T19:48:07.334Z,6.77
2019-05-10T19:50:38.320Z,3.40
2019-05-10T19:53:08.493Z,2.77
2019-05-10T19:55:38.743Z,2.60
2019-05-10T19:58:09.499Z,4.97
2019-05-10T20:00:39.703Z,4.60
2019-05-10T20:03:09.799Z,6.67
2019-05-10T20:05:39.812Z,3.60
2019-05-10T20:08:10.087Z,3.67
2019-05-10T20:10:40.222Z,2.87
2019-05-10T20:13:10.219Z,4.70
2019-05-10T20:15:40.899Z,8.63
2019-05-10T20:18:11.488Z,5.13
2019-05-10T20:20:42.853Z,5.30
2019-05-10T20:23:13.092Z,8.53
2019-05-10T20:25:43.876Z,4.67
2019-05-10T20:28:14.018Z,3.80
2019-05-10T20:30:44.240Z,3.83
2019-05-10T20:33:14.901Z,3.03
2019-05-10T20:35:45.220Z,2.60
2019-05-10T20:38:15.902Z,2.40
2019-05-10T20:40:46.847Z,2.27
2019-05-10T20:43:17.960Z,1.93
2019-05-10T20:45:48.850Z,2.60
2019-05-10T20:48:19.027Z,2.60
2019-05-10T20:50:49.818Z,3.07
2019-05-10T20:53:19.992Z,3.17
2019-05-10T20:55:50.018Z,2.20
2019-05-10T20:58:20.505Z,3.87
2019-05-10T21:00:51.081Z,3.57
2019-05-10T21:03:21.499Z,3.70
2019-05-10T21:05:51.633Z,4.90
2019-05-10T21:08:22.116Z,2.97
2019-05-10T21:10:52.125Z,3.60
2019-05-10T21:13:21.957Z,3.10
2019-05-10T21:15:52.742Z,2.10
2019-05-10T21:18:22.951Z,1.30
2019-05-10T21:20:53.532Z,1.43
2019-05-10T21:23:24.117Z,1.50
2019-05-10T21:25:54.119Z,1.80
2019-05-10T21:28:26.114Z,1.73
2019-05-10T21:30:57.045Z,1.83
2019-05-10T21:33:27.232Z,1.97
2019-05-10T21:35:57.339Z,1.90
2019-05-10T21:38:33.081Z,1.70
2019-05-10T21:40:59.710Z,1.70
2019-05-10T21:43:29.865Z,1.63
2019-05-10T21:46:00.306Z,1.60
2019-05-10T21:48:31.380Z,1.23
2019-05-10T21:51:01.453Z,1.23
2019-05-10T21:53:31.697Z,1.77
2019-05-10T21:56:01.633Z,1.50
2019-05-10T21:58:32.372Z,1.90
2019-05-10T22:01:02.782Z,2.60
2019-05-10T22:03:34.310Z,2.03
2019-05-10T22:06:06.170Z,3.10
2019-05-10T22:08:49.043Z,3.40
2019-05-10T22:11:09.783Z,1.63
2019-05-10T22:13:40.125Z,1.47
2019-05-10T22:16:10.302Z,2.00
2019-05-10T22:18:40.289Z,2.00
2019-05-10T22:21:10.829Z,2.00
2019-05-10T22:23:40.909Z,2.80
2019-05-10T22:26:11.012Z,1.70
2019-05-10T22:28:41.254Z,2.13
2019-05-10T22:31:11.407Z,1.80
2019-05-10T22:33:41.462Z,1.60
2019-05-10T22:36:11.476Z,1.53
2019-05-10T22:38:41.597Z,2.10
2019-05-10T22:41:11.650Z,1.53
2019-05-10T22:43:42.972Z,1.43
2019-05-10T22:46:14.052Z,1.73
2019-05-10T22:48:44.411Z,1.70
2019-05-10T22:51:14.420Z,1.70
2019-05-10T22:53:53.262Z,1.90
2019-05-10T22:56:16.425Z,1.67
2019-05-10T22:58:46.865Z,1.60
2019-05-10T23:01:17.734Z,1.13
2019-05-10T23:03:47.946Z,1.60
2019-05-10T23:06:18.726Z,3.20
2019-05-10T23:08:48.884Z,1.80
2019-05-10T23:11:19.137Z,1.50
2019-05-10T23:13:49.635Z,1.23
2019-05-10T23:16:20.176Z,1.20
2019-05-10T23:18:50.976Z,1.20
2019-05-10T23:21:21.742Z,1.27
2019-05-10T23:23:51.945Z,1.10
2019-05-10T23:26:21.925Z,1.10
2019-05-10T23:28:52.000Z,1.40
2019-05-10T23:31:22.073Z,1.23
2019-05-10T23:33:52.081Z,1.30
2019-05-10T23:36:22.139Z,1.20
2019-05-10T23:38:52.424Z,1.10
2019-05-10T23:41:22.565Z,1.27
2019-05-10T23:43:52.572Z,1.50
2019-05-10T23:46:22.629Z,1.30
2019-05-10T23:48:52.633Z,1.40
2019-05-10T23:51:22.751Z,1.43
2019-05-10T23:53:52.764Z,1.20
2019-05-10T23:56:22.742Z,1.40
2019-05-10T23:58:52.761Z,1.50
